sensor_id;sensor_type;location;lat;lon;timestamp;pressure;altitude;pressure_sealevel;temperature;humidity
59170;BME280;52474;52.236;5.114;2023-04-08T00:01:52;102371.31;;;6.81;100.00
59170;BME280;52474;52.236;5.114;2023-04-08T00:04:18;102374.69;;;6.85;100.00
59170;BME280;52474;52.236;5.114;2023-04-08T00:07:03;102351.59;;;6.71;100.00
59170;BME280;52474;52.236;5.114;2023-04-08T00:09:29;102382.59;;;6.85;100.00
59170;BME280;52474;52.236;5.114;2023-04-08T00:11:55;102361.28;;;6.71;100.00
59170;BME280;52474;52.236;5.114;2023-04-08T00:14:21;102383.44;;;6.85;100.00
59170;BME280;52474;52.236;5.114;2023-04-08T00:16:47;102383.63;;;6.81;100.00
59170;BME280;52474;52.236;5.114;2023-04-08T00:19:12;102380.41;;;6.74;100.00
59170;BME280;52474;52.236;5.114;2023-04-08T00:21:38;102376.44;;;6.65;100.00
59170;BME280;52474;52.236;5.114;2023-04-08T00:24:05;102382.88;;;6.58;100.00
59170;BME280;52474;52.236;5.114;2023-04-08T00:26:31;102371.75;;;6.52;100.00
59170;BME280;52474;52.236;5.114;2023-04-08T00:28:57;102377.22;;;6.47;100.00
59170;BME280;52474;52.236;5.114;2023-04-08T00:31:23;102380.28;;;6.38;100.00
59170;BME280;52474;52.236;5.114;2023-04-08T00:33:49;102374.75;;;6.23;100.00
59170;BME280;52474;52.236;5.114;2023-04-08T00:36:15;102370.66;;;6.16;100.00
59170;BME280;52474;52.236;5.114;2023-04-08T00:38:41;102375.13;;;6.14;100.00
59170;BME280;52474;52.236;5.114;2023-04-08T00:41:06;102380.53;;;6.11;100.00
59170;BME280;52474;52.236;5.114;2023-04-08T00:43:32;102389.03;;;6.18;100.00
59170;BME280;52474;52.236;5.114;2023-04-08T00:45:58;102381.69;;;6.24;100.00
59170;BME280;52474;52.236;5.114;2023-04-08T00:48:24;102390.34;;;6.28;100.00
59170;BME280;52474;52.236;5.114;2023-04-08T00:50:49;102374.66;;;6.25;100.00
59170;BME280;52474;52.236;5.114;2023-04-08T00:53:18;102367.56;;;6.27;100.00
59170;BME280;52474;52.236;5.114;2023-04-08T00:55:44;102389.63;;;6.45;100.00
59170;BME280;52474;52.236;5.114;2023-04-08T00:58:11;102373.09;;;6.41;100.00
59170;BME280;52474;52.236;5.114;2023-04-08T01:00:42;102389.34;;;6.51;100.00
59170;BME280;52474;52.236;5.114;2023-04-08T01:03:23;102393.69;;;6.52;100.00
59170;BME280;52474;52.236;5.114;2023-04-08T01:06:17;102367.63;;;6.46;100.00
59170;BME280;52474;52.236;5.114;2023-04-08T01:08:47;102395.09;;;6.59;100.00
59170;BME280;52474;52.236;5.114;2023-04-08T01:11:16;102389.72;;;6.62;100.00
59170;BME280;52474;52.236;5.114;2023-04-08T01:13:44;102388.19;;;6.57;100.00
59170;BME280;52474;52.236;5.114;2023-04-08T01:16:13;102384.72;;;6.56;100.00
59170;BME280;52474;52.236;5.114;2023-04-08T01:18:41;102391.47;;;6.62;100.00
59170;BME280;52474;52.236;5.114;2023-04-08T01:21:08;102391.38;;;6.65;100.00
59170;BME280;52474;52.236;5.114;2023-04-08T01:23:53;102397.50;;;6.65;100.00
59170;BME280;52474;52.236;5.114;2023-04-08T01:26:24;102396.56;;;6.66;100.00
59170;BME280;52474;52.236;5.114;2023-04-08T01:28:53;102394.84;;;6.65;100.00
59170;BME280;52474;52.236;5.114;2023-04-08T01:31:23;102405.19;;;6.70;100.00
59170;BME280;52474;52.236;5.114;2023-04-08T01:33:50;102400.72;;;6.72;100.00
59170;BME280;52474;52.236;5.114;2023-04-08T01:36:17;102375.91;;;6.57;100.00
59170;BME280;52474;52.236;5.114;2023-04-08T01:38:45;102402.69;;;6.67;100.00
59170;BME280;52474;52.236;5.114;2023-04-08T01:41:15;102405.38;;;6.65;100.00
59170;BME280;52474;52.236;5.114;2023-04-08T01:43:42;102400.31;;;6.61;100.00
59170;BME280;52474;52.236;5.114;2023-04-08T01:46:10;102405.13;;;6.51;100.00
59170;BME280;52474;52.236;5.114;2023-04-08T01:48:37;102396.97;;;6.37;100.00
59170;BME280;52474;52.236;5.114;2023-04-08T01:51:05;102405.31;;;6.26;100.00
59170;BME280;52474;52.236;5.114;2023-04-08T01:53:34;102410.63;;;6.24;100.00
59170;BME280;52474;52.236;5.114;2023-04-08T01:56:11;102402.22;;;6.16;100.00
59170;BME280;52474;52.236;5.114;2023-04-08T01:58:42;102391.56;;;5.99;100.00
59170;BME280;52474;52.236;5.114;2023-04-08T02:01:14;102408.41;;;6.15;100.00
59170;BME280;52474;52.236;5.114;2023-04-08T02:03:43;102386.03;;;6.05;100.00
59170;BME280;52474;52.236;5.114;2023-04-08T02:06:10;102406.13;;;6.28;100.00
59170;BME280;52474;52.236;5.114;2023-04-08T02:08:35;102405.72;;;6.37;100.00
59170;BME280;52474;52.236;5.114;2023-04-08T02:11:02;102411.91;;;6.36;100.00
59170;BME280;52474;52.236;5.114;2023-04-08T02:13:30;102409.22;;;6.38;100.00
59170;BME280;52474;52.236;5.114;2023-04-08T02:16:02;102405.72;;;6.37;100.00
59170;BME280;52474;52.236;5.114;2023-04-08T02:18:30;102405.97;;;6.31;100.00
59170;BME280;52474;52.236;5.114;2023-04-08T02:21:02;102413.22;;;6.26;100.00
59170;BME280;52474;52.236;5.114;2023-04-08T02:23:33;102389.31;;;6.10;100.00
59170;BME280;52474;52.236;5.114;2023-04-08T02:26:01;102403.91;;;6.17;100.00
59170;BME280;52474;52.236;5.114;2023-04-08T02:28:29;102405.56;;;6.20;100.00
59170;BME280;52474;52.236;5.114;2023-04-08T02:30:56;102391.38;;;6.04;100.00
59170;BME280;52474;52.236;5.114;2023-04-08T02:33:26;102390.38;;;6.06;100.00
59170;BME280;52474;52.236;5.114;2023-04-08T02:35:53;102410.97;;;6.17;100.00
59170;BME280;52474;52.236;5.114;2023-04-08T02:38:20;102413.69;;;6.15;100.00
59170;BME280;52474;52.236;5.114;2023-04-08T02:40:48;102419.47;;;6.23;100.00
59170;BME280;52474;52.236;5.114;2023-04-08T02:43:14;102420.13;;;6.29;100.00
59170;BME280;52474;52.236;5.114;2023-04-08T02:45:42;102421.59;;;6.36;100.00
59170;BME280;52474;52.236;5.114;2023-04-08T02:48:08;102423.94;;;6.42;100.00
59170;BME280;52474;52.236;5.114;2023-04-08T02:50:34;102423.09;;;6.41;100.00
59170;BME280;52474;52.236;5.114;2023-04-08T02:53:00;102423.09;;;6.41;100.00
59170;BME280;52474;52.236;5.114;2023-04-08T02:55:28;102434.28;;;6.47;100.00
59170;BME280;52474;52.236;5.114;2023-04-08T02:57:53;102424.72;;;6.44;100.00
59170;BME280;52474;52.236;5.114;2023-04-08T03:00:19;102430.78;;;6.46;100.00
59170;BME280;52474;52.236;5.114;2023-04-08T03:02:45;102429.16;;;6.43;100.00
59170;BME280;52474;52.236;5.114;2023-04-08T03:05:10;102400.06;;;6.26;100.00
59170;BME280;52474;52.236;5.114;2023-04-08T03:07:36;102437.88;;;6.44;100.00
59170;BME280;52474;52.236;5.114;2023-04-08T03:10:02;102438.81;;;6.43;100.00
59170;BME280;52474;52.236;5.114;2023-04-08T03:12:28;102423.47;;;6.32;100.00
59170;BME280;52474;52.236;5.114;2023-04-08T03:14:54;102436.38;;;6.38;100.00
59170;BME280;52474;52.236;5.114;2023-04-08T03:17:20;102429.34;;;6.39;100.00
59170;BME280;52474;52.236;5.114;2023-04-08T03:19:46;102435.41;;;6.41;100.00
59170;BME280;52474;52.236;5.114;2023-04-08T03:22:12;102416.50;;;6.31;100.00
59170;BME280;52474;52.236;5.114;2023-04-08T03:24:38;102434.34;;;6.45;100.00
59170;BME280;52474;52.236;5.114;2023-04-08T03:27:04;102435.00;;;6.50;100.00
59170;BME280;52474;52.236;5.114;2023-04-08T03:29:31;102443.75;;;6.51;100.00
59170;BME280;52474;52.236;5.114;2023-04-08T03:31:56;102444.56;;;6.53;100.00
59170;BME280;52474;52.236;5.114;2023-04-08T03:34:22;102437.69;;;6.49;100.00
59170;BME280;52474;52.236;5.114;2023-04-08T03:36:48;102444.47;;;6.54;100.00
59170;BME280;52474;52.236;5.114;2023-04-08T03:39:14;102445.25;;;6.56;100.00
59170;BME280;52474;52.236;5.114;2023-04-08T03:41:39;102413.59;;;6.37;100.00
59170;BME280;52474;52.236;5.114;2023-04-08T03:44:05;102430.59;;;6.51;100.00
59170;BME280;52474;52.236;5.114;2023-04-08T03:46:31;102442.50;;;6.59;100.00
59170;BME280;52474;52.236;5.114;2023-04-08T03:48:56;102455.41;;;6.65;100.00
59170;BME280;52474;52.236;5.114;2023-04-08T03:51:22;102449.16;;;6.68;100.00
59170;BME280;52474;52.236;5.114;2023-04-08T03:53:48;102448.34;;;6.66;100.00
59170;BME280;52474;52.236;5.114;2023-04-08T03:56:14;102456.19;;;6.68;100.00
59170;BME280;52474;52.236;5.114;2023-04-08T03:58:40;102457.28;;;6.62;100.00
59170;BME280;52474;52.236;5.114;2023-04-08T04:01:08;102456.31;;;6.64;100.00
59170;BME280;52474;52.236;5.114;2023-04-08T04:03:34;102455.47;;;6.64;100.00
59170;BME280;52474;52.236;5.114;2023-04-08T04:06:00;102459.88;;;6.63;100.00
59170;BME280;52474;52.236;5.114;2023-04-08T04:08:26;102462.69;;;6.59;100.00
59170;BME280;52474;52.236;5.114;2023-04-08T04:10:51;102443.09;;;6.45;100.00
59170;BME280;52474;52.236;5.114;2023-04-08T04:13:17;102465.59;;;6.53;100.00
59170;BME280;52474;52.236;5.114;2023-04-08T04:15:44;102466.47;;;6.53;100.00
59170;BME280;52474;52.236;5.114;2023-04-08T04:18:10;102469.22;;;6.50;100.00
59170;BME280;52474;52.236;5.114;2023-04-08T04:20:39;102462.00;;;6.55;100.00
59170;BME280;52474;52.236;5.114;2023-04-08T04:23:06;102473.50;;;6.53;100.00
59170;BME280;52474;52.236;5.114;2023-04-08T04:25:31;102476.25;;;6.50;100.00
59170;BME280;52474;52.236;5.114;2023-04-08T04:27:57;102473.69;;;6.48;100.00
59170;BME280;52474;52.236;5.114;2023-04-08T04:30:23;102482.81;;;6.39;100.00
59170;BME280;52474;52.236;5.114;2023-04-08T04:32:49;102464.06;;;6.27;100.00
59170;BME280;52474;52.236;5.114;2023-04-08T04:35:14;102490.13;;;6.33;100.00
59170;BME280;52474;52.236;5.114;2023-04-08T04:37:40;102477.75;;;6.13;100.00
59170;BME280;52474;52.236;5.114;2023-04-08T04:40:06;102492.38;;;5.76;100.00
59170;BME280;52474;52.236;5.114;2023-04-08T04:42:32;102500.75;;;5.38;100.00
59170;BME280;52474;52.236;5.114;2023-04-08T04:44:58;102492.06;;;5.13;100.00
59170;BME280;52474;52.236;5.114;2023-04-08T04:47:24;102485.91;;;4.89;100.00
59170;BME280;52474;52.236;5.114;2023-04-08T04:49:50;102499.47;;;4.77;100.00
59170;BME280;52474;52.236;5.114;2023-04-08T04:52:16;102494.53;;;4.67;100.00
59170;BME280;52474;52.236;5.114;2023-04-08T04:54:42;102501.84;;;4.58;100.00
59170;BME280;52474;52.236;5.114;2023-04-08T04:57:08;102510.94;;;4.47;100.00
59170;BME280;52474;52.236;5.114;2023-04-08T04:59:35;102476.50;;;4.32;100.00
59170;BME280;52474;52.236;5.114;2023-04-08T05:02:01;102513.78;;;4.41;100.00
59170;BME280;52474;52.236;5.114;2023-04-08T05:04:27;102514.69;;;4.40;100.00
59170;BME280;52474;52.236;5.114;2023-04-08T05:06:53;102509.78;;;4.29;100.00
59170;BME280;52474;52.236;5.114;2023-04-08T05:09:19;102508.13;;;4.27;100.00
59170;BME280;52474;52.236;5.114;2023-04-08T05:11:45;102497.28;;;4.11;100.00
59170;BME280;52474;52.236;5.114;2023-04-08T05:14:11;102516.25;;;4.19;100.00
59170;BME280;52474;52.236;5.114;2023-04-08T05:16:36;102523.34;;;4.16;100.00
59170;BME280;52474;52.236;5.114;2023-04-08T05:19:03;102528.75;;;4.11;100.00
59170;BME280;52474;52.236;5.114;2023-04-08T05:21:29;102508.19;;;3.97;100.00
59170;BME280;52474;52.236;5.114;2023-04-08T05:23:55;102534.06;;;4.08;100.00
59170;BME280;52474;52.236;5.114;2023-04-08T05:26:21;102538.44;;;4.07;100.00
59170;BME280;52474;52.236;5.114;2023-04-08T05:28:47;102538.28;;;4.14;100.00
59170;BME280;52474;52.236;5.114;2023-04-08T05:31:17;102534.03;;;4.09;100.00
59170;BME280;52474;52.236;5.114;2023-04-08T05:33:43;102539.31;;;4.08;100.00
59170;BME280;52474;52.236;5.114;2023-04-08T05:36:10;102544.50;;;4.09;100.00
59170;BME280;52474;52.236;5.114;2023-04-08T05:38:36;102537.75;;;4.02;100.00
59170;BME280;52474;52.236;5.114;2023-04-08T05:41:02;102549.88;;;4.06;100.00
59170;BME280;52474;52.236;5.114;2023-04-08T05:43:28;102549.03;;;4.04;100.00
59170;BME280;52474;52.236;5.114;2023-04-08T05:45:54;102551.78;;;4.01;100.00
59170;BME280;52474;52.236;5.114;2023-04-08T05:48:19;102548.03;;;4.08;100.00
59170;BME280;52474;52.236;5.114;2023-04-08T05:50:45;102537.88;;;3.98;100.00
59170;BME280;52474;52.236;5.114;2023-04-08T05:53:13;102558.38;;;4.13;100.00
59170;BME280;52474;52.236;5.114;2023-04-08T05:55:39;102562.84;;;4.11;100.00
59170;BME280;52474;52.236;5.114;2023-04-08T05:58:05;102563.34;;;4.22;100.00
59170;BME280;52474;52.236;5.114;2023-04-08T06:00:32;102567.69;;;4.23;100.00
59170;BME280;52474;52.236;5.114;2023-04-08T06:02:58;102561.56;;;4.23;100.00
59170;BME280;52474;52.236;5.114;2023-04-08T06:05:23;102567.63;;;4.25;100.00
59170;BME280;52474;52.236;5.114;2023-04-08T06:07:49;102571.88;;;4.29;100.00
59170;BME280;52474;52.236;5.114;2023-04-08T06:10:15;102570.16;;;4.28;100.00
59170;BME280;52474;52.236;5.114;2023-04-08T06:12:41;102576.31;;;4.27;100.00
59170;BME280;52474;52.236;5.114;2023-04-08T06:15:07;102575.31;;;4.31;100.00
59170;BME280;52474;52.236;5.114;2023-04-08T06:17:37;102565.69;;;4.32;100.00
59170;BME280;52474;52.236;5.114;2023-04-08T06:20:07;102565.69;;;4.32;100.00
59170;BME280;52474;52.236;5.114;2023-04-08T06:22:36;102584.66;;;4.40;100.00
59170;BME280;52474;52.236;5.114;2023-04-08T06:25:03;102587.00;;;4.49;100.00
59170;BME280;52474;52.236;5.114;2023-04-08T06:27:29;102577.44;;;4.46;100.00
59170;BME280;52474;52.236;5.114;2023-04-08T06:29:54;102584.22;;;4.54;100.00
59170;BME280;52474;52.236;5.114;2023-04-08T06:32:21;102576.63;;;4.44;100.00
59170;BME280;52474;52.236;5.114;2023-04-08T06:34:47;102599.84;;;4.57;100.00
59170;BME280;52474;52.236;5.114;2023-04-08T06:37:13;102601.34;;;4.65;100.00
59170;BME280;52474;52.236;5.114;2023-04-08T06:39:39;102604.13;;;4.61;100.00
59170;BME280;52474;52.236;5.114;2023-04-08T06:42:06;102609.13;;;4.68;100.00
59170;BME280;52474;52.236;5.114;2023-04-08T06:44:41;102607.09;;;4.77;100.00
59170;BME280;52474;52.236;5.114;2023-04-08T06:47:07;102608.75;;;4.79;100.00
59170;BME280;52474;52.236;5.114;2023-04-08T06:49:33;102609.59;;;4.80;100.00
59170;BME280;52474;52.236;5.114;2023-04-08T06:51:59;102603.38;;;4.82;100.00
59170;BME280;52474;52.236;5.114;2023-04-08T06:54:25;102612.03;;;4.86;100.00
59170;BME280;52474;52.236;5.114;2023-04-08T06:56:51;102612.59;;;4.95;100.00
59170;BME280;52474;52.236;5.114;2023-04-08T06:59:16;102621.06;;;5.04;100.00
59170;BME280;52474;52.236;5.114;2023-04-08T07:01:42;102614.13;;;5.03;100.00
59170;BME280;52474;52.236;5.114;2023-04-08T07:04:08;102623.69;;;5.04;100.00
59170;BME280;52474;52.236;5.114;2023-04-08T07:06:34;102593.38;;;4.95;100.00
59170;BME280;52474;52.236;5.114;2023-04-08T07:09:00;102621.50;;;5.16;100.00
59170;BME280;52474;52.236;5.114;2023-04-08T07:11:26;102621.28;;;5.24;100.00
59170;BME280;52474;52.236;5.114;2023-04-08T07:13:52;102620.03;;;5.34;100.00
59170;BME280;52474;52.236;5.114;2023-04-08T07:16:18;102621.69;;;5.37;100.00
59170;BME280;52474;52.236;5.114;2023-04-08T07:18:43;102625.91;;;5.41;100.00
59170;BME280;52474;52.236;5.114;2023-04-08T07:21:11;102628.34;;;5.47;100.00
59170;BME280;52474;52.236;5.114;2023-04-08T07:23:37;102632.38;;;5.56;100.00
59170;BME280;52474;52.236;5.114;2023-04-08T07:26:03;102630.44;;;5.61;100.00
59170;BME280;52474;52.236;5.114;2023-04-08T07:28:32;102637.13;;;5.71;100.00
59170;BME280;52474;52.236;5.114;2023-04-08T07:31:11;102639.06;;;5.90;100.00
59170;BME280;52474;52.236;5.114;2023-04-08T07:33:37;102637.84;;;6.00;100.00
59170;BME280;52474;52.236;5.114;2023-04-08T07:36:03;102650.78;;;6.06;100.00
59170;BME280;52474;52.236;5.114;2023-04-08T07:38:29;102620.78;;;7.80;100.00
59170;BME280;52474;52.236;5.114;2023-04-08T07:40:55;102624.41;;;12.73;100.00
59170;BME280;52474;52.236;5.114;2023-04-08T07:43:21;102627.31;;;9.86;100.00
59170;BME280;52474;52.236;5.114;2023-04-08T07:45:47;102625.13;;;12.48;100.00
59170;BME280;52474;52.236;5.114;2023-04-08T07:48:13;102594.72;;;17.03;100.00
59170;BME280;52474;52.236;5.114;2023-04-08T07:50:39;102609.50;;;19.27;100.00
59170;BME280;52474;52.236;5.114;2023-04-08T07:53:05;102624.25;;;19.23;100.00
59170;BME280;52474;52.236;5.114;2023-04-08T07:55:34;102625.09;;;19.70;100.00
59170;BME280;52474;52.236;5.114;2023-04-08T07:57:59;102628.66;;;20.44;100.00
59170;BME280;52474;52.236;5.114;2023-04-08T08:00:26;102623.78;;;20.75;100.00
59170;BME280;52474;52.236;5.114;2023-04-08T08:02:54;102625.44;;;21.12;100.00
59170;BME280;52474;52.236;5.114;2023-04-08T08:05:21;102625.34;;;21.04;100.00
59170;BME280;52474;52.236;5.114;2023-04-08T08:07:46;102620.91;;;22.16;100.00
59170;BME280;52474;52.236;5.114;2023-04-08T08:10:12;102623.38;;;22.43;100.00
59170;BME280;52474;52.236;5.114;2023-04-08T08:12:38;102621.19;;;22.63;100.00
59170;BME280;52474;52.236;5.114;2023-04-08T08:15:04;102637.25;;;22.65;100.00
59170;BME280;52474;52.236;5.114;2023-04-08T08:17:35;102624.88;;;22.54;100.00
59170;BME280;52474;52.236;5.114;2023-04-08T08:20:08;102615.63;;;23.22;100.00
59170;BME280;52474;52.236;5.114;2023-04-08T08:23:02;102622.53;;;22.51;100.00
59170;BME280;52474;52.236;5.114;2023-04-08T08:26:00;102621.06;;;23.70;100.00
59170;BME280;52474;52.236;5.114;2023-04-08T08:28:26;102625.31;;;23.64;100.00
59170;BME280;52474;52.236;5.114;2023-04-08T08:30:53;102624.03;;;23.44;100.00
59170;BME280;52474;52.236;5.114;2023-04-08T08:33:18;102630.56;;;24.68;100.00
59170;BME280;52474;52.236;5.114;2023-04-08T08:35:44;102630.69;;;24.43;100.00
59170;BME280;52474;52.236;5.114;2023-04-08T08:38:11;102634.03;;;24.99;100.00
59170;BME280;52474;52.236;5.114;2023-04-08T08:40:38;102627.84;;;25.05;100.00
59170;BME280;52474;52.236;5.114;2023-04-08T08:43:04;102621.31;;;25.00;100.00
59170;BME280;52474;52.236;5.114;2023-04-08T08:45:30;102641.66;;;24.81;100.00
59170;BME280;52474;52.236;5.114;2023-04-08T08:47:56;102640.34;;;25.30;100.00
59170;BME280;52474;52.236;5.114;2023-04-08T08:50:25;102633.25;;;26.39;100.00
59170;BME280;52474;52.236;5.114;2023-04-08T08:52:52;102637.94;;;25.94;99.99
59170;BME280;52474;52.236;5.114;2023-04-08T08:55:18;102635.03;;;25.96;89.39
59170;BME280;52474;52.236;5.114;2023-04-08T08:57:44;102626.34;;;26.37;87.29
59170;BME280;52474;52.236;5.114;2023-04-08T09:00:11;102636.59;;;26.56;81.86
59170;BME280;52474;52.236;5.114;2023-04-08T09:02:40;102632.75;;;26.72;93.90
59170;BME280;52474;52.236;5.114;2023-04-08T09:05:07;102637.94;;;26.67;86.61
59170;BME280;52474;52.236;5.114;2023-04-08T09:07:37;102647.19;;;26.51;82.43
59170;BME280;52474;52.236;5.114;2023-04-08T09:10:05;102642.94;;;26.27;82.61
59170;BME280;52474;52.236;5.114;2023-04-08T09:12:31;102645.34;;;27.01;82.13
59170;BME280;52474;52.236;5.114;2023-04-08T09:15:08;102641.88;;;26.86;78.92
59170;BME280;52474;52.236;5.114;2023-04-08T09:17:38;102649.13;;;26.57;81.27
59170;BME280;52474;52.236;5.114;2023-04-08T09:20:07;102649.72;;;26.74;81.48
59170;BME280;52474;52.236;5.114;2023-04-08T09:22:59;102654.31;;;26.01;77.82
59170;BME280;52474;52.236;5.114;2023-04-08T09:25:30;102640.94;;;25.84;77.80
59170;BME280;52474;52.236;5.114;2023-04-08T09:27:57;102649.56;;;24.82;81.01
59170;BME280;52474;52.236;5.114;2023-04-08T09:30:24;102638.16;;;25.48;81.16
59170;BME280;52474;52.236;5.114;2023-04-08T09:32:53;102648.56;;;26.62;77.72
59170;BME280;52474;52.236;5.114;2023-04-08T09:35:19;102647.66;;;26.76;71.99
59170;BME280;52474;52.236;5.114;2023-04-08T09:37:46;102650.19;;;27.27;73.32
59170;BME280;52474;52.236;5.114;2023-04-08T09:40:13;102651.03;;;26.78;73.18
59170;BME280;52474;52.236;5.114;2023-04-08T09:42:46;102652.47;;;27.58;65.16
59170;BME280;52474;52.236;5.114;2023-04-08T09:45:14;102657.91;;;27.58;64.49
59170;BME280;52474;52.236;5.114;2023-04-08T09:48:02;102663.03;;;28.16;65.22
59170;BME280;52474;52.236;5.114;2023-04-08T09:50:35;102660.53;;;28.21;60.74
59170;BME280;52474;52.236;5.114;2023-04-08T09:53:28;102665.19;;;27.51;58.41
59170;BME280;52474;52.236;5.114;2023-04-08T09:55:56;102659.84;;;27.30;65.54
59170;BME280;52474;52.236;5.114;2023-04-08T09:58:33;102656.91;;;27.31;70.44
59170;BME280;52474;52.236;5.114;2023-04-08T10:01:04;102662.00;;;28.24;58.79
59170;BME280;52474;52.236;5.114;2023-04-08T10:03:39;102650.06;;;28.18;61.11
59170;BME280;52474;52.236;5.114;2023-04-08T10:06:06;102654.34;;;27.58;61.16
59170;BME280;52474;52.236;5.114;2023-04-08T10:08:33;102650.97;;;27.84;61.74
59170;BME280;52474;52.236;5.114;2023-04-08T10:11:00;102651.81;;;27.22;55.33
59170;BME280;52474;52.236;5.114;2023-04-08T10:13:26;102649.72;;;27.52;67.25
59170;BME280;52474;52.236;5.114;2023-04-08T10:18:44;102646.69;;;28.23;63.47
59170;BME280;52474;52.236;5.114;2023-04-08T10:21:39;102646.47;;;27.35;56.34
59170;BME280;52474;52.236;5.114;2023-04-08T10:24:12;102646.50;;;27.13;58.72
59170;BME280;52474;52.236;5.114;2023-04-08T10:26:41;102650.28;;;28.30;65.54
59170;BME280;52474;52.236;5.114;2023-04-08T10:31:42;102632.50;;;28.41;57.02
59170;BME280;52474;52.236;5.114;2023-04-08T10:34:22;102642.63;;;27.57;53.64
59170;BME280;52474;52.236;5.114;2023-04-08T10:36:51;102646.81;;;27.95;56.67
59170;BME280;52474;52.236;5.114;2023-04-08T10:39:17;102638.97;;;27.44;53.58
59170;BME280;52474;52.236;5.114;2023-04-08T10:41:44;102638.44;;;27.61;55.01
59170;BME280;52474;52.236;5.114;2023-04-08T10:44:24;102635.41;;;27.43;54.87
59170;BME280;52474;52.236;5.114;2023-04-08T10:46:52;102636.00;;;27.67;56.53
59170;BME280;52474;52.236;5.114;2023-04-08T10:49:18;102628.00;;;27.65;53.18
59170;BME280;52474;52.236;5.114;2023-04-08T10:51:44;102623.25;;;27.80;57.67
59170;BME280;52474;52.236;5.114;2023-04-08T10:54:13;102620.38;;;26.91;59.04
59170;BME280;52474;52.236;5.114;2023-04-08T10:56:50;102604.75;;;26.99;54.28
59170;BME280;52474;52.236;5.114;2023-04-08T10:59:26;102618.00;;;27.72;56.78
59170;BME280;52474;52.236;5.114;2023-04-08T11:01:52;102620.72;;;27.09;53.77
59170;BME280;52474;52.236;5.114;2023-04-08T11:04:21;102606.78;;;27.54;57.46
59170;BME280;52474;52.236;5.114;2023-04-08T11:06:48;102626.22;;;27.44;55.33
59170;BME280;52474;52.236;5.114;2023-04-08T11:09:15;102587.03;;;28.55;52.81
59170;BME280;52474;52.236;5.114;2023-04-08T11:11:44;102629.53;;;26.25;58.35
59170;BME280;52474;52.236;5.114;2023-04-08T11:14:12;102631.78;;;26.80;60.81
59170;BME280;52474;52.236;5.114;2023-04-08T11:16:38;102624.53;;;26.44;61.05
59170;BME280;52474;52.236;5.114;2023-04-08T11:19:06;102623.50;;;27.16;54.56
59170;BME280;52474;52.236;5.114;2023-04-08T11:21:36;102630.50;;;27.04;59.18
59170;BME280;52474;52.236;5.114;2023-04-08T11:24:11;102628.81;;;26.53;55.08
59170;BME280;52474;52.236;5.114;2023-04-08T11:26:38;102625.44;;;24.18;63.99
59170;BME280;52474;52.236;5.114;2023-04-08T11:29:05;102619.31;;;25.76;61.29
59170;BME280;52474;52.236;5.114;2023-04-08T11:31:31;102625.50;;;26.36;60.83
59170;BME280;52474;52.236;5.114;2023-04-08T11:33:57;102619.34;;;26.27;55.42
59170;BME280;52474;52.236;5.114;2023-04-08T11:36:22;102625.34;;;26.23;53.82
59170;BME280;52474;52.236;5.114;2023-04-08T11:38:49;102629.72;;;25.28;54.64
59170;BME280;52474;52.236;5.114;2023-04-08T11:41:15;102627.28;;;25.63;51.15
59170;BME280;52474;52.236;5.114;2023-04-08T11:43:54;102608.75;;;25.66;54.59
59170;BME280;52474;52.236;5.114;2023-04-08T11:46:21;102628.72;;;26.25;51.32
59170;BME280;52474;52.236;5.114;2023-04-08T11:49:03;102628.44;;;24.24;55.22
59170;BME280;52474;52.236;5.114;2023-04-08T11:51:31;102618.59;;;25.67;61.26
59170;BME280;52474;52.236;5.114;2023-04-08T11:53:57;102627.75;;;24.30;59.12
59170;BME280;52474;52.236;5.114;2023-04-08T11:56:24;102625.25;;;24.74;62.20
59170;BME280;52474;52.236;5.114;2023-04-08T11:58:50;102618.75;;;24.83;55.87
59170;BME280;52474;52.236;5.114;2023-04-08T12:01:17;102609.81;;;25.51;57.17
59170;BME280;52474;52.236;5.114;2023-04-08T12:04:00;102617.81;;;26.03;61.73
59170;BME280;52474;52.236;5.114;2023-04-08T12:06:27;102631.84;;;26.65;62.11
59170;BME280;52474;52.236;5.114;2023-04-08T12:08:54;102630.22;;;26.92;62.79
59170;BME280;52474;52.236;5.114;2023-04-08T12:11:20;102619.09;;;26.65;61.25
59170;BME280;52474;52.236;5.114;2023-04-08T12:13:46;102628.94;;;25.79;63.38
59170;BME280;52474;52.236;5.114;2023-04-08T12:16:14;102629.53;;;26.25;59.19
59170;BME280;52474;52.236;5.114;2023-04-08T12:18:39;102637.41;;;24.55;72.93
59170;BME280;52474;52.236;5.114;2023-04-08T12:21:06;102631.38;;;24.91;71.84
59170;BME280;52474;52.236;5.114;2023-04-08T12:23:31;102630.25;;;24.62;74.22
59170;BME280;52474;52.236;5.114;2023-04-08T12:25:57;102612.50;;;25.36;66.65
59170;BME280;52474;52.236;5.114;2023-04-08T12:28:23;102625.38;;;24.27;66.13
59170;BME280;52474;52.236;5.114;2023-04-08T12:30:49;102622.09;;;23.69;66.80
59170;BME280;52474;52.236;5.114;2023-04-08T12:33:15;102628.31;;;22.05;69.45
59170;BME280;52474;52.236;5.114;2023-04-08T12:35:41;102635.94;;;21.41;68.43
59170;BME280;52474;52.236;5.114;2023-04-08T12:38:07;102624.06;;;21.34;75.06
59170;BME280;52474;52.236;5.114;2023-04-08T12:40:33;102627.16;;;20.95;77.61
59170;BME280;52474;52.236;5.114;2023-04-08T12:42:59;102633.06;;;20.99;80.23
59170;BME280;52474;52.236;5.114;2023-04-08T12:45:25;102617.91;;;21.76;77.10
59170;BME280;52474;52.236;5.114;2023-04-08T12:47:50;102624.94;;;20.73;74.30
59170;BME280;52474;52.236;5.114;2023-04-08T12:50:16;102635.06;;;20.43;83.34
59170;BME280;52474;52.236;5.114;2023-04-08T12:52:42;102633.22;;;19.88;87.77
59170;BME280;52474;52.236;5.114;2023-04-08T12:55:08;102633.50;;;19.48;98.66
59170;BME280;52474;52.236;5.114;2023-04-08T12:57:34;102635.66;;;19.44;99.59
59170;BME280;52474;52.236;5.114;2023-04-08T13:00:00;102624.09;;;19.24;100.00